Time;durP1;ratioP1;P1;durP2;ratioP2;P2;SDS_P1;SDS_P2;PMS_P1;PMS_P2;Temp;Humidity;BMP_temperature;BMP_pressure;BME280_temperature;BME280_humidity;BME280_pressure;Samples;Min_cycle;Max_cycle;Signal;HPM_P1;HPM_P2
2022/01/23 00:02:15;;;;;;;17.40;6.18;;;;;;;;;;4998198;28;20036;-52
2022/01/23 00:04:41;;;;;;;11.55;5.13;;;;;;;;;;4993795;28;20030;-54
2022/01/23 00:07:09;;;;;;;17.05;6.35;;;;;;;;;;4999967;28;20088;-53
2022/01/23 00:09:36;;;;;;;15.63;5.53;;;;;;;;;;4991416;28;20032;-53
2022/01/23 00:12:10;;;;;;;13.68;4.65;;;;;;;;;;4984544;28;20054;-52
2022/01/23 00:17:22;;;;;;;14.27;5.35;;;;;;;;;;4997992;28;20518;-53
2022/01/23 00:19:54;;;;;;;13.13;4.90;;;;;;;;;;5001616;28;20176;-55
2022/01/23 00:22:24;;;;;;;11.85;4.82;;;;;;;;;;5000800;28;20018;-53
2022/01/23 00:30:26;;;;;;;7.63;3.65;;;;;;;;;;5001645;28;20076;-54
2022/01/23 00:32:52;;;;;;;10.00;4.03;;;;;;;;;;4995323;28;20026;-54
2022/01/23 00:35:17;;;;;;;14.07;5.90;;;;;;;;;;5000740;28;20042;-53
2022/01/23 00:37:43;;;;;;;14.25;5.47;;;;;;;;;;4999334;28;20398;-54
2022/01/23 00:40:10;;;;;;;16.13;4.20;;;;;;;;;;5001990;28;20087;-53
2022/01/23 00:42:35;;;;;;;10.70;3.35;;;;;;;;;;4999677;28;20030;-53
2022/01/23 00:47:47;;;;;;;16.25;3.75;;;;;;;;;;5002079;28;20048;-54
2022/01/23 00:50:12;;;;;;;11.57;3.28;;;;;;;;;;4996495;28;20030;-52
2022/01/23 00:52:37;;;;;;;11.50;3.40;;;;;;;;;;5002302;28;20079;-53
2022/01/23 00:55:05;;;;;;;8.10;3.47;;;;;;;;;;4998963;28;20042;-52
2022/01/23 00:57:33;;;;;;;7.00;3.75;;;;;;;;;;5003154;28;20080;-54
2022/01/23 01:00:03;;;;;;;14.38;4.03;;;;;;;;;;4997665;28;20047;-53
2022/01/23 01:02:29;;;;;;;7.43;3.35;;;;;;;;;;5004153;28;20048;-52
2022/01/23 01:04:54;;;;;;;8.35;2.65;;;;;;;;;;5008080;28;20033;-52
2022/01/23 01:07:20;;;;;;;6.40;2.90;;;;;;;;;;5003572;28;20030;-51
2022/01/23 01:09:49;;;;;;;9.93;3.25;;;;;;;;;;5002250;28;20057;-52
2022/01/23 01:12:29;;;;;;;12.00;3.45;;;;;;;;;;5002680;28;20104;-52
2022/01/23 01:15:36;;;;;;;11.73;3.63;;;;;;;;;;5003070;28;20034;-52
2022/01/23 01:31:23;;;;;;;6.40;3.25;;;;;;;;;;5004044;28;20052;-53
2022/01/23 01:33:54;;;;;;;13.75;3.40;;;;;;;;;;5002961;28;20026;-53
2022/01/23 01:39:18;;;;;;;13.07;3.30;;;;;;;;;;4982964;28;20049;-54
2022/01/23 01:41:44;;;;;;;14.90;3.70;;;;;;;;;;5003522;28;20014;-54
2022/01/23 01:44:11;;;;;;;9.68;3.55;;;;;;;;;;5003400;28;20092;-56
2022/01/23 01:46:37;;;;;;;12.95;3.53;;;;;;;;;;5003383;28;20068;-55
2022/01/23 01:49:03;;;;;;;12.38;3.30;;;;;;;;;;5003134;28;20484;-54
2022/01/23 01:51:31;;;;;;;9.60;3.20;;;;;;;;;;5003227;28;20030;-53
2022/01/23 01:54:04;;;;;;;6.90;3.38;;;;;;;;;;5002701;28;20026;-53
2022/01/23 01:56:36;;;;;;;7.90;3.10;;;;;;;;;;5001923;28;20044;-53
2022/01/23 02:09:27;;;;;;;9.43;3.35;;;;;;;;;;4996957;28;20539;-54
2022/01/23 02:12:22;;;;;;;14.02;3.40;;;;;;;;;;5001391;28;20694;-54
2022/01/23 02:17:55;;;;;;;10.88;3.20;;;;;;;;;;5005938;28;20117;-53
2022/01/23 02:50:37;;;;;;;16.42;2.92;;;;;;;;;;4980026;28;20249;-52
2022/01/23 02:56:15;;;;;;;10.50;2.85;;;;;;;;;;4964450;28;20098;-50
2022/01/23 02:58:55;;;;;;;13.98;2.80;;;;;;;;;;4985660;28;20038;-51
2022/01/23 03:01:21;;;;;;;7.07;2.85;;;;;;;;;;5002427;28;20029;-52
2022/01/23 03:03:56;;;;;;;11.80;3.58;;;;;;;;;;5002455;28;20042;-51
2022/01/23 03:07:13;;;;;;;13.63;4.05;;;;;;;;;;4997175;28;20092;-53
2022/01/23 03:12:02;;;;;;;7.65;3.10;;;;;;;;;;5005659;28;20519;-53
2022/01/23 03:30:21;;;;;;;7.90;2.92;;;;;;;;;;4997328;28;20408;-52
2022/01/23 03:32:49;;;;;;;15.80;3.72;;;;;;;;;;5006610;28;20026;-53
2022/01/23 03:35:16;;;;;;;7.43;3.30;;;;;;;;;;5001255;28;20114;-53
2022/01/23 03:37:42;;;;;;;17.55;4.25;;;;;;;;;;4999942;28;20033;-52
2022/01/23 03:40:09;;;;;;;11.45;2.88;;;;;;;;;;5001855;28;20440;-52
2022/01/23 03:42:37;;;;;;;8.45;3.17;;;;;;;;;;5001924;28;20030;-54
2022/01/23 03:45:33;;;;;;;11.77;3.70;;;;;;;;;;5000253;28;20067;-53
2022/01/23 03:49:30;;;;;;;6.82;3.53;;;;;;;;;;5001412;28;20070;-54
2022/01/23 03:50:38;;;;;;;8.90;3.95;;;;;;;;;;4999823;28;20614;-54
2022/01/23 03:53:05;;;;;;;8.77;4.85;;;;;;;;;;5001151;28;20084;-51
2022/01/23 03:55:31;;;;;;;9.45;3.75;;;;;;;;;;4995713;28;20124;-53
2022/01/23 03:57:56;;;;;;;9.57;3.97;;;;;;;;;;4998749;28;20480;-53
2022/01/23 04:00:23;;;;;;;6.53;3.33;;;;;;;;;;4999508;28;20037;-51
2022/01/23 04:02:48;;;;;;;8.23;4.15;;;;;;;;;;5003457;28;20026;-54
2022/01/23 04:05:14;;;;;;;11.00;5.05;;;;;;;;;;4997685;28;20381;-53
2022/01/23 04:07:39;;;;;;;14.18;5.25;;;;;;;;;;4998833;28;20033;-53
2022/01/23 04:10:07;;;;;;;21.73;4.97;;;;;;;;;;4996897;28;20072;-52
2022/01/23 05:01:22;;;;;;;4.20;2.85;;;;;;;;;;5003371;28;20045;-52
2022/01/23 05:06:23;;;;;;;5.68;2.90;;;;;;;;;;5006528;28;20265;-53
2022/01/23 05:08:49;;;;;;;18.35;3.45;;;;;;;;;;5001427;28;20034;-52
2022/01/23 05:11:14;;;;;;;6.18;2.67;;;;;;;;;;5003490;28;20030;-53
2022/01/23 05:13:40;;;;;;;12.10;2.70;;;;;;;;;;5004949;28;20386;-52
2022/01/23 05:16:06;;;;;;;5.55;2.65;;;;;;;;;;5005099;28;20083;-51
2022/01/23 05:18:34;;;;;;;8.85;3.58;;;;;;;;;;5002652;28;20129;-50
2022/01/23 05:21:20;;;;;;;4.05;2.75;;;;;;;;;;5003937;28;20029;-51
2022/01/23 05:23:46;;;;;;;8.57;3.10;;;;;;;;;;5004108;28;20077;-51
2022/01/23 05:26:11;;;;;;;9.98;2.90;;;;;;;;;;4999889;28;20034;-51
2022/01/23 05:28:37;;;;;;;8.57;2.85;;;;;;;;;;5004397;28;20433;-53
2022/01/23 05:31:02;;;;;;;9.23;3.00;;;;;;;;;;4997153;28;20095;-53
2022/01/23 05:33:27;;;;;;;6.85;3.45;;;;;;;;;;4997912;28;20041;-52
2022/01/23 05:35:53;;;;;;;11.30;3.00;;;;;;;;;;5002344;28;20232;-52
2022/01/23 05:38:18;;;;;;;7.68;2.88;;;;;;;;;;5004049;28;20125;-52
2022/01/23 05:40:44;;;;;;;4.55;2.85;;;;;;;;;;5002750;28;20026;-53
2022/01/23 05:43:10;;;;;;;6.32;3.42;;;;;;;;;;5004026;28;20064;-53
2022/01/23 05:45:41;;;;;;;9.55;3.47;;;;;;;;;;5003932;28;20453;-53
2022/01/23 05:48:07;;;;;;;5.53;3.13;;;;;;;;;;5002788;28;20372;-53
2022/01/23 05:50:33;;;;;;;10.38;3.33;;;;;;;;;;5005482;28;20508;-52
2022/01/23 05:52:58;;;;;;;7.85;3.58;;;;;;;;;;5002217;28;20133;-53
2022/01/23 05:55:24;;;;;;;9.82;3.60;;;;;;;;;;5001871;28;20077;-51
2022/01/23 05:57:49;;;;;;;6.75;3.70;;;;;;;;;;4983357;28;20038;-49
2022/01/23 06:00:15;;;;;;;6.90;3.55;;;;;;;;;;5002955;28;20137;-52
2022/01/23 06:02:41;;;;;;;8.10;4.00;;;;;;;;;;5004548;28;20034;-52
2022/01/23 06:05:07;;;;;;;7.10;3.75;;;;;;;;;;5002711;28;20482;-52
2022/01/23 06:07:32;;;;;;;11.20;4.20;;;;;;;;;;4997035;28;20038;-52
2022/01/23 06:09:58;;;;;;;8.63;3.58;;;;;;;;;;5002602;28;20034;-52
2022/01/23 06:12:23;;;;;;;10.25;3.55;;;;;;;;;;5003347;28;20130;-53
2022/01/23 06:14:49;;;;;;;4.82;2.80;;;;;;;;;;5001796;28;20531;-51
2022/01/23 06:17:14;;;;;;;5.68;3.08;;;;;;;;;;5004184;28;20062;-52
2022/01/23 06:19:40;;;;;;;7.95;3.50;;;;;;;;;;5004336;28;20033;-52
2022/01/23 06:22:06;;;;;;;15.90;3.97;;;;;;;;;;4998328;28;20080;-51
2022/01/23 06:24:32;;;;;;;10.60;3.67;;;;;;;;;;5001360;28;20489;-52
2022/01/23 06:27:01;;;;;;;14.18;4.00;;;;;;;;;;5001894;28;20038;-52
2022/01/23 06:29:30;;;;;;;13.13;4.35;;;;;;;;;;4999068;28;20513;-53
2022/01/23 06:31:58;;;;;;;9.07;3.60;;;;;;;;;;5000561;28;20065;-52
2022/01/23 06:34:24;;;;;;;10.13;3.67;;;;;;;;;;4984375;28;20079;-51
2022/01/23 06:36:52;;;;;;;4.85;2.88;;;;;;;;;;5002760;28;20026;-52
2022/01/23 06:39:19;;;;;;;7.07;3.47;;;;;;;;;;5000806;28;20472;-53
2022/01/23 06:41:44;;;;;;;14.40;2.90;;;;;;;;;;5003909;28;20100;-49
2022/01/23 06:44:10;;;;;;;13.18;3.60;;;;;;;;;;4998724;28;20489;-53
2022/01/23 06:46:39;;;;;;;12.27;3.97;;;;;;;;;;4998096;28;20497;-52
2022/01/23 06:49:06;;;;;;;6.38;3.40;;;;;;;;;;4978576;28;20497;-52
2022/01/23 06:51:31;;;;;;;10.18;3.78;;;;;;;;;;5004164;28;20026;-52
2022/01/23 06:53:57;;;;;;;8.85;3.25;;;;;;;;;;5001063;28;20127;-52
2022/01/23 06:56:22;;;;;;;10.90;4.05;;;;;;;;;;5003049;28;20546;-50
2022/01/23 06:58:48;;;;;;;9.13;3.25;;;;;;;;;;5000864;28;20408;-52
2022/01/23 07:01:14;;;;;;;3.78;2.85;;;;;;;;;;4981078;28;20132;-50
2022/01/23 07:03:39;;;;;;;10.68;3.17;;;;;;;;;;4997971;28;20044;-52
2022/01/23 07:06:05;;;;;;;8.13;3.20;;;;;;;;;;5002137;28;20025;-52
2022/01/23 07:08:31;;;;;;;7.95;3.25;;;;;;;;;;4999472;28;20516;-52
2022/01/23 07:10:57;;;;;;;11.75;3.92;;;;;;;;;;4995296;28;20101;-52
2022/01/23 07:13:23;;;;;;;11.95;3.50;;;;;;;;;;4997664;28;20061;-51
2022/01/23 07:15:49;;;;;;;7.68;2.92;;;;;;;;;;5002139;28;20038;-53
2022/01/23 07:18:18;;;;;;;6.72;3.10;;;;;;;;;;4999468;28;20271;-52
2022/01/23 07:20:45;;;;;;;9.30;3.97;;;;;;;;;;5001048;28;20543;-51
2022/01/23 07:23:11;;;;;;;14.57;4.22;;;;;;;;;;5001637;28;20049;-49
2022/01/23 07:25:37;;;;;;;9.27;3.33;;;;;;;;;;4997802;28;20010;-51
2022/01/23 07:28:05;;;;;;;9.10;3.92;;;;;;;;;;4998763;28;20045;-51
2022/01/23 07:30:51;;;;;;;7.35;3.75;;;;;;;;;;5001779;28;20275;-51
2022/01/23 07:33:17;;;;;;;9.98;3.60;;;;;;;;;;4999689;28;20129;-53
2022/01/23 07:35:43;;;;;;;10.30;3.70;;;;;;;;;;4997332;28;20034;-55
2022/01/23 07:38:10;;;;;;;6.72;3.65;;;;;;;;;;5000780;28;20037;-53
2022/01/23 07:40:36;;;;;;;6.90;3.42;;;;;;;;;;5000257;28;20030;-54
2022/01/23 07:43:02;;;;;;;11.15;4.10;;;;;;;;;;4997646;28;20121;-54
2022/01/23 07:45:27;;;;;;;6.32;3.70;;;;;;;;;;5000184;28;20121;-54
2022/01/23 07:47:53;;;;;;;6.65;3.70;;;;;;;;;;4980061;28;20528;-54
2022/01/23 07:50:18;;;;;;;12.10;4.32;;;;;;;;;;5000471;28;20449;-53
2022/01/23 07:52:44;;;;;;;11.90;4.35;;;;;;;;;;5001276;28;20110;-55
2022/01/23 07:55:12;;;;;;;14.65;4.18;;;;;;;;;;5000382;28;20026;-54
2022/01/23 07:57:39;;;;;;;11.38;3.92;;;;;;;;;;5000609;28;20451;-52
2022/01/23 08:00:06;;;;;;;8.85;3.67;;;;;;;;;;4998290;28;20029;-53
2022/01/23 08:02:31;;;;;;;10.60;4.10;;;;;;;;;;4997660;28;20030;-51
2022/01/23 08:04:57;;;;;;;8.48;3.90;;;;;;;;;;4999861;28;20033;-53
2022/01/23 08:09:57;;;;;;;13.32;4.15;;;;;;;;;;4999288;28;20056;-54
2022/01/23 08:12:24;;;;;;;7.55;3.63;;;;;;;;;;5000781;28;20054;-52
2022/01/23 08:14:50;;;;;;;11.27;3.80;;;;;;;;;;5001863;28;20263;-54
2022/01/23 08:17:16;;;;;;;6.13;3.20;;;;;;;;;;4999037;28;20058;-53
2022/01/23 08:19:42;;;;;;;4.80;2.00;;;;;;;;;;4997041;28;20042;-55
2022/01/23 08:22:07;;;;;;;5.40;2.00;;;;;;;;;;4995189;28;20032;-56
2022/01/23 08:24:33;;;;;;;7.07;2.03;;;;;;;;;;4996254;28;20048;-55
2022/01/23 08:26:58;;;;;;;7.00;2.15;;;;;;;;;;4997283;28;20060;-55
2022/01/23 08:29:24;;;;;;;5.57;2.17;;;;;;;;;;4997842;28;20026;-55
2022/01/23 08:31:49;;;;;;;3.03;2.00;;;;;;;;;;5004339;28;20030;-57
2022/01/23 08:34:15;;;;;;;11.60;1.92;;;;;;;;;;5002421;28;20307;-57
2022/01/23 08:36:41;;;;;;;7.55;1.80;;;;;;;;;;4998059;28;20022;-55
2022/01/23 08:39:06;;;;;;;9.18;1.27;;;;;;;;;;4981728;28;20034;-56
2022/01/23 08:41:50;;;;;;;5.22;1.10;;;;;;;;;;4996906;28;20030;-57
2022/01/23 08:44:21;;;;;;;7.88;1.42;;;;;;;;;;5000895;28;20026;-56
2022/01/23 08:46:47;;;;;;;6.75;1.30;;;;;;;;;;5001773;28;20034;-55
2022/01/23 08:49:15;;;;;;;5.65;1.30;;;;;;;;;;4999677;28;20049;-56
2022/01/23 08:51:41;;;;;;;4.10;1.20;;;;;;;;;;4996373;28;20539;-57
2022/01/23 08:54:07;;;;;;;3.83;1.08;;;;;;;;;;5003017;28;20025;-56
2022/01/23 08:56:32;;;;;;;4.72;0.90;;;;;;;;;;4999818;28;20454;-55
2022/01/23 08:58:58;;;;;;;4.97;0.70;;;;;;;;;;5002487;28;20159;-56
2022/01/23 09:01:24;;;;;;;3.47;0.82;;;;;;;;;;5000189;28;20041;-57
2022/01/23 09:03:50;;;;;;;4.00;0.90;;;;;;;;;;5004863;28;20088;-56
2022/01/23 09:06:16;;;;;;;4.20;0.90;;;;;;;;;;4996746;28;20034;-56
2022/01/23 09:08:41;;;;;;;3.22;0.90;;;;;;;;;;4994632;28;20390;-54
2022/01/23 09:11:12;;;;;;;5.63;0.82;;;;;;;;;;4997205;28;20749;-53
2022/01/23 09:16:07;;;;;;;8.75;1.50;;;;;;;;;;5002616;28;20092;-53
2022/01/23 09:18:33;;;;;;;5.82;1.08;;;;;;;;;;5001630;28;20033;-53
2022/01/23 09:20:59;;;;;;;3.17;1.13;;;;;;;;;;4991889;28;20042;-53
2022/01/23 09:23:25;;;;;;;5.47;1.27;;;;;;;;;;4998285;28;20504;-53
2022/01/23 09:25:51;;;;;;;8.10;1.45;;;;;;;;;;4999446;28;20081;-54
2022/01/23 09:28:19;;;;;;;4.70;1.20;;;;;;;;;;5004388;28;20037;-53
2022/01/23 09:30:49;;;;;;;6.68;0.82;;;;;;;;;;4988891;28;20042;-53
2022/01/23 09:33:16;;;;;;;5.35;0.88;;;;;;;;;;5004132;28;20041;-53
2022/01/23 09:35:42;;;;;;;6.07;0.77;;;;;;;;;;5004673;28;20500;-53
2022/01/23 09:38:07;;;;;;;5.13;0.65;;;;;;;;;;4995864;28;20056;-53
2022/01/23 09:40:37;;;;;;;3.03;0.63;;;;;;;;;;5002599;28;20038;-53
2022/01/23 09:43:07;;;;;;;3.35;0.57;;;;;;;;;;5000293;28;20524;-51
2022/01/23 09:45:34;;;;;;;3.10;0.60;;;;;;;;;;5002495;28;20025;-53
2022/01/23 09:48:02;;;;;;;10.65;0.80;;;;;;;;;;4987881;28;20570;-50
2022/01/23 09:50:30;;;;;;;4.60;0.73;;;;;;;;;;5002822;28;20072;-53
2022/01/23 09:52:56;;;;;;;7.05;0.85;;;;;;;;;;5005417;28;20613;-53
2022/01/23 09:55:25;;;;;;;1.70;0.50;;;;;;;;;;5000739;28;20034;-53
2022/01/23 09:57:50;;;;;;;2.90;0.65;;;;;;;;;;5002490;28;20045;-54
2022/01/23 10:00:19;;;;;;;4.22;0.80;;;;;;;;;;4998887;28;20021;-53
2022/01/23 10:02:50;;;;;;;4.25;0.60;;;;;;;;;;4999660;28;20026;-53
2022/01/23 10:05:16;;;;;;;2.38;0.65;;;;;;;;;;5000827;28;20488;-53
2022/01/23 10:07:42;;;;;;;6.60;0.70;;;;;;;;;;4993273;28;20033;-54
2022/01/23 10:10:11;;;;;;;5.22;0.90;;;;;;;;;;4997891;28;20029;-52
2022/01/23 10:12:42;;;;;;;6.85;0.95;;;;;;;;;;4981898;28;20040;-53
2022/01/23 10:15:09;;;;;;;2.72;0.75;;;;;;;;;;4997575;28;20377;-53
2022/01/23 10:17:35;;;;;;;5.60;0.63;;;;;;;;;;4993827;28;20405;-52
2022/01/23 10:20:03;;;;;;;1.33;0.55;;;;;;;;;;4999722;28;20052;-53
2022/01/23 10:22:29;;;;;;;3.33;0.55;;;;;;;;;;4998885;28;20029;-50
2022/01/23 10:25:07;;;;;;;4.25;0.60;;;;;;;;;;5001012;28;20034;-52
2022/01/23 10:28:08;;;;;;;3.85;0.98;;;;;;;;;;5003856;28;21018;-51
2022/01/23 10:30:39;;;;;;;1.80;0.40;;;;;;;;;;4997374;28;20222;-53
2022/01/23 10:33:10;;;;;;;6.13;0.60;;;;;;;;;;4996883;28;20374;-53
2022/01/23 10:35:52;;;;;;;5.00;0.80;;;;;;;;;;5001061;28;20418;-53
2022/01/23 10:38:19;;;;;;;2.17;0.40;;;;;;;;;;4999617;28;20918;-53
2022/01/23 10:40:51;;;;;;;5.13;0.73;;;;;;;;;;5002991;28;20203;-53
2022/01/23 10:48:40;;;;;;;3.05;0.70;;;;;;;;;;5002397;28;20475;-53
2022/01/23 10:51:14;;;;;;;4.03;0.60;;;;;;;;;;4996369;28;20052;-50
2022/01/23 10:54:00;;;;;;;3.00;0.57;;;;;;;;;;5003460;28;20036;-53
2022/01/23 10:56:28;;;;;;;4.70;0.85;;;;;;;;;;4994245;28;20073;-53
2022/01/23 10:59:12;;;;;;;6.05;0.95;;;;;;;;;;5002144;28;20532;-53
2022/01/23 11:01:57;;;;;;;4.55;0.55;;;;;;;;;;5000478;28;20033;-53
2022/01/23 11:04:23;;;;;;;3.67;0.60;;;;;;;;;;5004865;28;20552;-53
2022/01/23 11:07:05;;;;;;;5.10;0.68;;;;;;;;;;5002231;28;20193;-53
2022/01/23 11:09:36;;;;;;;12.88;1.25;;;;;;;;;;4980065;28;20038;-53
2022/01/23 11:12:23;;;;;;;6.57;1.27;;;;;;;;;;4998668;28;20675;-54
2022/01/23 11:17:52;;;;;;;3.17;1.40;;;;;;;;;;4999646;28;20040;-53
2022/01/23 11:20:37;;;;;;;7.30;1.55;;;;;;;;;;4999117;28;20513;-53
2022/01/23 11:23:22;;;;;;;6.57;1.20;;;;;;;;;;4996355;28;20171;-52
2022/01/23 11:25:57;;;;;;;4.03;1.35;;;;;;;;;;5000567;28;20269;-54
2022/01/23 11:28:36;;;;;;;5.13;1.00;;;;;;;;;;4999814;28;20050;-53
2022/01/23 11:31:04;;;;;;;2.90;0.95;;;;;;;;;;4999627;28;20030;-54
2022/01/23 11:33:30;;;;;;;8.35;1.45;;;;;;;;;;5002452;28;20502;-54
2022/01/23 11:35:56;;;;;;;10.02;1.23;;;;;;;;;;5000993;28;20593;-53
2022/01/23 11:38:24;;;;;;;3.17;1.38;;;;;;;;;;5000684;28;20038;-54
2022/01/23 11:54:56;;;;;;;7.90;1.38;;;;;;;;;;5001214;28;20127;-52
2022/01/23 11:57:37;;;;;;;10.95;2.53;;;;;;;;;;4978865;28;20444;-53
2022/01/23 12:00:18;;;;;;;4.15;1.27;;;;;;;;;;4999263;28;20130;-52
2022/01/23 12:03:04;;;;;;;2.15;0.80;;;;;;;;;;5003555;28;20588;-52
2022/01/23 12:05:31;;;;;;;4.97;1.10;;;;;;;;;;5001598;28;20444;-52
2022/01/23 12:08:19;;;;;;;5.68;1.20;;;;;;;;;;5001112;28;20134;-53
2022/01/23 12:11:23;;;;;;;3.80;1.10;;;;;;;;;;4998524;28;20037;-52
2022/01/23 12:17:04;;;;;;;6.03;1.30;;;;;;;;;;5001158;28;20042;-52
2022/01/23 12:19:46;;;;;;;8.07;1.33;;;;;;;;;;5000803;28;20048;-52
2022/01/23 12:22:24;;;;;;;9.20;2.40;;;;;;;;;;5000006;28;20033;-53
2022/01/23 12:24:51;;;;;;;5.38;2.50;;;;;;;;;;4999658;28;20030;-53
2022/01/23 12:27:21;;;;;;;6.20;2.00;;;;;;;;;;4983001;28;20493;-52
2022/01/23 12:29:47;;;;;;;8.25;2.30;;;;;;;;;;4998357;28;20030;-54
2022/01/23 12:32:27;;;;;;;9.63;3.10;;;;;;;;;;4999824;28;20064;-55
2022/01/23 12:34:58;;;;;;;3.25;0.90;;;;;;;;;;5001088;28;20029;-53
2022/01/23 12:37:25;;;;;;;3.83;1.55;;;;;;;;;;4998186;28;20034;-53
2022/01/23 12:40:21;;;;;;;8.65;1.85;;;;;;;;;;5002101;28;20080;-54
2022/01/23 12:43:06;;;;;;;4.78;1.35;;;;;;;;;;4999410;28;21030;-53
2022/01/23 12:45:52;;;;;;;4.97;1.45;;;;;;;;;;4995981;28;20112;-52
2022/01/23 12:48:30;;;;;;;8.82;0.93;;;;;;;;;;5000610;28;20033;-55
2022/01/23 12:51:14;;;;;;;5.78;1.20;;;;;;;;;;5001126;28;20034;-53
2022/01/23 12:53:48;;;;;;;7.45;1.75;;;;;;;;;;5002220;28;20042;-52
2022/01/23 12:56:24;;;;;;;5.70;1.55;;;;;;;;;;5003950;28;20088;-53
2022/01/23 12:58:54;;;;;;;2.97;0.90;;;;;;;;;;5003553;28;20073;-51
2022/01/23 13:01:25;;;;;;;3.78;0.75;;;;;;;;;;4997755;28;20053;-52
2022/01/23 13:03:55;;;;;;;7.93;1.42;;;;;;;;;;5001346;28;20030;-51
2022/01/23 13:06:48;;;;;;;3.58;1.42;;;;;;;;;;5004670;28;20417;-48
2022/01/23 13:12:42;;;;;;;6.32;1.27;;;;;;;;;;4990175;28;20508;-51
2022/01/23 13:15:22;;;;;;;3.25;0.90;;;;;;;;;;5006735;28;20176;-49
2022/01/23 13:18:18;;;;;;;6.28;0.77;;;;;;;;;;5002488;28;20037;-49
2022/01/23 13:32:31;;;;;;;8.68;1.85;;;;;;;;;;5001489;28;20036;-51
2022/01/23 13:35:07;;;;;;;15.82;1.50;;;;;;;;;;4999618;28;20192;-49
2022/01/23 13:37:36;;;;;;;6.32;0.82;;;;;;;;;;5002937;28;20026;-50
2022/01/23 13:40:07;;;;;;;5.10;1.17;;;;;;;;;;5001643;28;20037;-49
2022/01/23 13:59:35;;;;;;;15.97;1.50;;;;;;;;;;4997770;28;20285;-47
2022/01/23 14:02:14;;;;;;;8.65;1.42;;;;;;;;;;5001804;28;20567;-47
2022/01/23 14:04:47;;;;;;;11.85;3.20;;;;;;;;;;5006338;28;20045;-47
2022/01/23 14:07:21;;;;;;;24.27;2.55;;;;;;;;;;4995575;28;20022;-48
2022/01/23 14:09:47;;;;;;;23.77;2.22;;;;;;;;;;4999154;28;20034;-48
2022/01/23 14:12:16;;;;;;;15.88;1.88;;;;;;;;;;4958867;28;1236335;-48
2022/01/23 14:14:49;;;;;;;15.23;1.55;;;;;;;;;;5000972;28;20022;-48
2022/01/23 14:17:16;;;;;;;12.32;2.30;;;;;;;;;;5001894;28;20080;-45
2022/01/23 14:19:56;;;;;;;15.70;1.77;;;;;;;;;;4981806;28;20061;-47
2022/01/23 14:22:33;;;;;;;17.27;2.00;;;;;;;;;;5004568;28;20275;-47
2022/01/23 14:25:25;;;;;;;11.18;1.48;;;;;;;;;;5000857;28;20037;-46
2022/01/23 14:28:13;;;;;;;14.25;2.83;;;;;;;;;;4999098;28;20037;-48
2022/01/23 14:30:54;;;;;;;13.50;1.60;;;;;;;;;;5000757;28;20508;-46
2022/01/23 14:33:23;;;;;;;10.77;1.58;;;;;;;;;;5000387;28;21365;-51
2022/01/23 14:35:50;;;;;;;13.77;2.67;;;;;;;;;;5001129;28;20030;-50
2022/01/23 14:38:20;;;;;;;9.35;1.95;;;;;;;;;;5003365;28;20095;-50
2022/01/23 14:40:58;;;;;;;14.60;2.55;;;;;;;;;;5000912;28;20496;-48
2022/01/23 14:43:39;;;;;;;15.15;2.00;;;;;;;;;;5001519;28;20087;-53
2022/01/23 14:46:09;;;;;;;11.60;1.95;;;;;;;;;;4999830;28;20027;-50
2022/01/23 14:48:46;;;;;;;12.18;1.88;;;;;;;;;;4999048;28;20030;-52
2022/01/23 14:51:20;;;;;;;15.90;2.70;;;;;;;;;;5001075;28;20076;-52
2022/01/23 14:53:47;;;;;;;9.80;1.98;;;;;;;;;;4995412;28;20456;-52
2022/01/23 14:56:14;;;;;;;7.03;1.27;;;;;;;;;;4998759;28;20116;-49
2022/01/23 14:58:41;;;;;;;8.75;1.85;;;;;;;;;;5002746;28;20042;-46
2022/01/23 15:01:10;;;;;;;14.65;2.22;;;;;;;;;;4997632;28;20030;-46
2022/01/23 15:03:36;;;;;;;6.65;1.75;;;;;;;;;;4999354;28;20033;-47
2022/01/23 15:06:03;;;;;;;16.65;1.98;;;;;;;;;;4999407;28;20042;-47
2022/01/23 15:08:29;;;;;;;12.52;2.38;;;;;;;;;;5000410;28;20033;-47
2022/01/23 15:10:59;;;;;;;7.07;1.33;;;;;;;;;;4998978;28;20106;-49
2022/01/23 15:13:26;;;;;;;10.35;1.88;;;;;;;;;;5003947;28;20231;-50
2022/01/23 15:15:53;;;;;;;5.43;1.48;;;;;;;;;;5000387;28;20544;-50
2022/01/23 15:18:20;;;;;;;9.32;1.40;;;;;;;;;;5000857;28;20093;-47
2022/01/23 15:20:46;;;;;;;9.32;1.80;;;;;;;;;;5001022;28;20036;-47
2022/01/23 15:23:14;;;;;;;10.73;1.50;;;;;;;;;;5001193;28;20509;-47
2022/01/23 15:25:40;;;;;;;13.02;1.63;;;;;;;;;;5001166;28;20025;-48
2022/01/23 15:28:06;;;;;;;6.10;1.00;;;;;;;;;;4996713;28;20177;-47
2022/01/23 15:30:32;;;;;;;9.23;1.55;;;;;;;;;;5002678;28;20052;-47
2022/01/23 15:33:00;;;;;;;8.65;1.48;;;;;;;;;;5004165;28;20109;-49
2022/01/23 15:35:27;;;;;;;16.92;2.58;;;;;;;;;;4998646;28;20408;-46
2022/01/23 15:37:53;;;;;;;6.03;1.38;;;;;;;;;;5001656;28;20805;-49
2022/01/23 15:40:20;;;;;;;11.10;1.80;;;;;;;;;;5000210;28;20099;-47
2022/01/23 15:42:49;;;;;;;11.10;2.03;;;;;;;;;;5003381;28;20036;-46
2022/01/23 15:45:15;;;;;;;7.40;2.10;;;;;;;;;;5001647;28;20038;-49
2022/01/23 15:47:41;;;;;;;10.70;2.10;;;;;;;;;;5005256;28;20539;-50
2022/01/23 15:50:09;;;;;;;12.88;2.60;;;;;;;;;;5001462;28;20037;-51
2022/01/23 15:52:35;;;;;;;12.30;2.13;;;;;;;;;;4980742;28;20172;-48
2022/01/23 15:55:01;;;;;;;10.45;2.53;;;;;;;;;;4995136;28;20137;-47
2022/01/23 15:57:27;;;;;;;8.35;2.90;;;;;;;;;;5001808;28;20065;-50
2022/01/23 15:59:52;;;;;;;11.00;3.33;;;;;;;;;;5002659;28;20534;-49
2022/01/23 16:02:18;;;;;;;20.00;4.22;;;;;;;;;;5000100;28;20029;-49
2022/01/23 16:04:44;;;;;;;12.27;3.33;;;;;;;;;;5000244;28;20429;-47
2022/01/23 16:07:16;;;;;;;13.45;3.42;;;;;;;;;;4999147;28;20033;-50
2022/01/23 16:09:42;;;;;;;13.15;2.42;;;;;;;;;;4999564;28;20030;-50
2022/01/23 16:12:08;;;;;;;12.43;2.58;;;;;;;;;;5003631;28;20519;-49
2022/01/23 16:14:34;;;;;;;9.50;1.98;;;;;;;;;;5000102;28;20109;-50
2022/01/23 16:16:59;;;;;;;14.80;2.33;;;;;;;;;;4997219;28;20422;-49
2022/01/23 16:19:25;;;;;;;11.45;2.90;;;;;;;;;;5002345;28;20026;-50
2022/01/23 16:21:54;;;;;;;9.88;2.58;;;;;;;;;;5001524;28;20038;-48
2022/01/23 16:24:21;;;;;;;20.13;2.78;;;;;;;;;;4999228;28;20411;-49
2022/01/23 16:26:48;;;;;;;11.80;2.45;;;;;;;;;;5001771;28;20520;-50
2022/01/23 16:29:14;;;;;;;9.68;3.20;;;;;;;;;;5000310;28;20420;-53
2022/01/23 16:31:39;;;;;;;17.00;3.65;;;;;;;;;;5001487;28;20496;-45
2022/01/23 16:34:05;;;;;;;9.02;2.10;;;;;;;;;;4999738;28;20591;-47
2022/01/23 16:36:32;;;;;;;16.38;2.42;;;;;;;;;;5001973;28;20045;-48
2022/01/23 16:38:57;;;;;;;10.43;2.90;;;;;;;;;;5000510;28;20038;-46
2022/01/23 16:41:23;;;;;;;6.35;1.65;;;;;;;;;;5001251;28;20468;-51
2022/01/23 16:43:49;;;;;;;12.93;2.67;;;;;;;;;;4980179;28;20046;-48
2022/01/23 16:46:16;;;;;;;10.93;2.90;;;;;;;;;;5002687;28;20054;-48
2022/01/23 16:48:41;;;;;;;12.52;2.38;;;;;;;;;;4997965;28;20060;-47
2022/01/23 16:51:07;;;;;;;10.88;2.45;;;;;;;;;;4999104;28;20493;-47
2022/01/23 16:53:33;;;;;;;9.73;2.25;;;;;;;;;;4999006;28;20108;-51
2022/01/23 16:55:58;;;;;;;17.05;2.53;;;;;;;;;;4999351;28;20567;-48
2022/01/23 16:58:29;;;;;;;8.48;2.40;;;;;;;;;;4997905;28;20034;-51
2022/01/23 17:00:56;;;;;;;13.27;3.30;;;;;;;;;;5000596;28;20021;-50
2022/01/23 17:03:22;;;;;;;13.05;2.58;;;;;;;;;;4996851;28;20037;-52
2022/01/23 17:05:48;;;;;;;17.30;2.70;;;;;;;;;;4998047;28;20034;-48
2022/01/23 17:08:15;;;;;;;10.48;4.50;;;;;;;;;;4999141;28;20041;-48
2022/01/23 17:10:43;;;;;;;17.85;4.45;;;;;;;;;;4994857;28;20120;-47
2022/01/23 17:13:09;;;;;;;12.82;2.90;;;;;;;;;;4992784;28;20648;-46
2022/01/23 17:15:38;;;;;;;10.48;3.30;;;;;;;;;;5000763;28;20108;-46
2022/01/23 17:18:05;;;;;;;24.60;3.03;;;;;;;;;;4999378;28;20085;-47
2022/01/23 17:20:32;;;;;;;9.45;3.47;;;;;;;;;;4999674;28;20041;-50
2022/01/23 17:22:58;;;;;;;13.65;3.35;;;;;;;;;;4999818;28;20081;-47
2022/01/23 17:25:23;;;;;;;13.98;4.00;;;;;;;;;;4983186;28;20453;-47
2022/01/23 17:27:49;;;;;;;19.23;4.45;;;;;;;;;;4977890;28;20053;-46
2022/01/23 17:30:16;;;;;;;12.95;3.67;;;;;;;;;;5001652;28;20033;-46
2022/01/23 17:32:42;;;;;;;10.52;3.03;;;;;;;;;;4997172;28;20501;-49
2022/01/23 17:35:08;;;;;;;12.90;3.10;;;;;;;;;;4999291;28;20060;-47
2022/01/23 17:37:34;;;;;;;18.98;3.75;;;;;;;;;;5003614;28;20106;-48
2022/01/23 17:39:59;;;;;;;15.82;3.85;;;;;;;;;;4999599;28;20074;-50
2022/01/23 17:42:25;;;;;;;15.13;4.00;;;;;;;;;;4981960;28;20025;-50
2022/01/23 17:44:52;;;;;;;19.10;4.47;;;;;;;;;;4999314;28;20022;-48
2022/01/23 17:47:56;;;;;;;14.50;4.30;;;;;;;;;;5002517;28;20572;-49
2022/01/23 17:50:20;;;;;;;15.88;5.25;;;;;;;;;;4999381;28;20046;-46
2022/01/23 17:52:50;;;;;;;22.92;4.25;;;;;;;;;;5000249;28;20031;-50
2022/01/23 17:55:16;;;;;;;11.30;3.95;;;;;;;;;;5001914;28;20042;-50
2022/01/23 17:57:42;;;;;;;18.23;4.03;;;;;;;;;;5000150;28;20022;-49
2022/01/23 18:00:08;;;;;;;20.02;4.25;;;;;;;;;;4984807;28;20048;-49
2022/01/23 18:02:35;;;;;;;26.52;10.65;;;;;;;;;;5001112;28;20626;-52
2022/01/23 18:05:03;;;;;;;25.65;5.88;;;;;;;;;;5000065;28;20100;-47
2022/01/23 18:07:29;;;;;;;32.60;5.50;;;;;;;;;;5004417;28;20058;-48
2022/01/23 18:09:58;;;;;;;13.82;4.88;;;;;;;;;;5001725;28;20029;-47
2022/01/23 18:12:25;;;;;;;26.50;4.28;;;;;;;;;;5003697;28;20053;-46
2022/01/23 18:14:50;;;;;;;18.65;7.32;;;;;;;;;;5000894;28;20037;-47
2022/01/23 18:17:18;;;;;;;16.05;4.43;;;;;;;;;;4997604;28;20029;-47
2022/01/23 18:19:44;;;;;;;18.30;5.72;;;;;;;;;;5002850;28;20038;-46